Time;durP1;ratioP1;P1;durP2;ratioP2;P2;SDS_P1;SDS_P2;PMS_P1;PMS_P2;Temp;Humidity;BMP_temperature;BMP_pressure;BME280_temperature;BME280_humidity;BME280_pressure;Samples;Min_cycle;Max_cycle;Signal;HPM_P1;HPM_P2
2022/01/23 00:02:51;;;;;;;49.20;18.92;;;;;;;-2.22;100.00;101832.91;3447054;84;99819;-86
2022/01/23 00:07:52;;;;;;;44.20;18.23;;;;;;;-2.15;100.00;101806.00;3475524;83;99499;-86
2022/01/23 00:13:06;;;;;;;45.10;19.40;;;;;;;-2.14;100.00;101824.35;3462477;83;99396;-86
2022/01/23 00:17:56;;;;;;;47.67;20.15;;;;;;;-2.11;100.00;101833.25;3481431;83;33602;-86
2022/01/23 00:23:00;;;;;;;43.70;19.63;;;;;;;-2.05;100.00;101807.94;3471390;83;99277;-86
2022/01/23 00:33:22;;;;;;;37.73;17.20;;;;;;;-1.95;100.00;101797.22;3480380;83;99906;-86
2022/01/23 00:38:23;;;;;;;35.85;17.55;;;;;;;-1.93;100.00;101797.75;3443949;83;99366;-85
2022/01/23 00:43:29;;;;;;;39.27;16.77;;;;;;;-1.90;100.00;101808.86;3526975;82;99460;-88
2022/01/23 00:48:34;;;;;;;41.70;17.87;;;;;;;-1.83;100.00;101818.88;3474793;83;99346;-88
2022/01/23 00:53:32;;;;;;;36.00;16.77;;;;;;;-1.78;100.00;101814.03;3501682;83;99311;-88
2022/01/23 00:58:34;;;;;;;40.00;18.03;;;;;;;-1.74;100.00;101825.94;3579541;82;99649;-89
2022/01/23 01:03:35;;;;;;;45.70;17.82;;;;;;;-1.73;100.00;101820.29;3451933;83;99449;-86
2022/01/23 01:08:36;;;;;;;39.77;17.27;;;;;;;-1.66;100.00;101814.63;3493018;83;99793;-86
2022/01/23 01:14:19;;;;;;;33.83;15.60;;;;;;;-1.61;100.00;101816.01;3506387;83;99400;-86
2022/01/23 01:34:48;;;;;;;39.10;17.73;;;;;;;-1.45;100.00;101825.80;3491804;83;99239;-86
2022/01/23 01:39:44;;;;;;;34.08;15.70;;;;;;;-1.43;100.00;101838.52;3501691;83;99353;-85
2022/01/23 01:44:45;;;;;;;33.07;15.83;;;;;;;-1.45;100.00;101848.75;3507915;83;99786;-86
2022/01/23 01:49:47;;;;;;;35.95;15.65;;;;;;;-1.42;100.00;101840.14;3477255;83;99317;-86
2022/01/23 01:54:57;;;;;;;33.17;15.60;;;;;;;-1.40;100.00;101828.52;3463563;83;32268;-86
2022/01/23 02:00:11;;;;;;;34.13;15.30;;;;;;;-1.39;100.00;101836.37;3452615;83;99235;-86
2022/01/23 02:10:12;;;;;;;32.33;14.20;;;;;;;-1.34;100.00;101843.14;3442774;84;99396;-86
2022/01/23 02:15:41;;;;;;;34.83;15.53;;;;;;;-1.29;100.00;101836.41;3514147;81;99308;-86
2022/01/23 02:50:40;;;;;;;37.73;16.12;;;;;;;-1.18;100.00;101829.14;3464665;83;99380;-86
2022/01/23 02:56:56;;;;;;;30.92;13.43;;;;;;;-0.99;100.00;101807.33;3477116;83;99415;-86
2022/01/23 03:02:10;;;;;;;32.38;13.32;;;;;;;-1.00;100.00;101796.26;3473633;83;99307;-86
2022/01/23 03:33:05;;;;;;;30.68;13.22;;;;;;;-0.89;100.00;101818.95;3468144;83;99743;-86
2022/01/23 03:38:06;;;;;;;22.13;9.30;;;;;;;-0.85;100.00;101816.53;3444147;83;99427;-86
2022/01/23 03:43:10;;;;;;;22.87;10.23;;;;;;;-0.83;100.00;101819.23;3456344;83;98661;-86
2022/01/23 03:53:15;;;;;;;24.92;10.28;;;;;;;-0.77;100.00;101822.77;3499091;83;99134;-86
2022/01/23 03:58:16;;;;;;;27.75;11.73;;;;;;;-0.75;100.00;101828.72;3509352;83;99258;-86
2022/01/23 04:03:19;;;;;;;29.67;12.80;;;;;;;-0.75;100.00;101828.19;3498128;83;99185;-88
2022/01/23 04:08:20;;;;;;;26.77;11.57;;;;;;;-0.71;100.00;101833.30;3490221;83;99275;-85
2022/01/23 04:13:42;;;;;;;28.27;12.15;;;;;;;-0.64;100.00;101837.11;3453897;84;99252;-86
2022/01/23 04:34:38;;;;;;;19.57;8.65;;;;;;;-0.48;100.00;101873.38;3506370;83;99054;-86
2022/01/23 05:00:53;;;;;;;27.17;10.85;;;;;;;-0.39;100.00;101854.72;3475589;83;98899;-86
2022/01/23 05:06:01;;;;;;;23.27;9.45;;;;;;;-0.37;100.00;101851.19;3433317;84;99080;-86
2022/01/23 05:10:58;;;;;;;22.22;9.45;;;;;;;-0.36;100.00;101852.28;3454249;83;99001;-87
2022/01/23 05:15:58;;;;;;;24.00;9.80;;;;;;;-0.34;100.00;101856.87;3529482;81;98192;-87
2022/01/23 05:21:11;;;;;;;24.07;9.45;;;;;;;-0.32;100.00;101864.20;3512687;82;98997;-87
2022/01/23 05:26:01;;;;;;;27.55;11.57;;;;;;;-0.32;100.00;101866.07;3520230;82;99099;-87
2022/01/23 05:31:02;;;;;;;25.77;11.50;;;;;;;-0.32;100.00;101864.98;3516937;82;99258;-87
2022/01/23 05:36:05;;;;;;;23.80;11.07;;;;;;;-0.32;100.00;101864.98;3522150;82;98822;-87
2022/01/23 05:41:06;;;;;;;22.48;9.50;;;;;;;-0.30;100.00;101879.60;3514539;82;99177;-86
2022/01/23 05:46:07;;;;;;;21.70;9.03;;;;;;;-0.26;100.00;101890.16;3541621;82;99129;-86
2022/01/23 05:51:12;;;;;;;19.30;8.70;;;;;;;-0.20;100.00;101889.08;3514747;82;99041;-86
2022/01/23 05:56:11;;;;;;;25.05;9.25;;;;;;;-0.15;100.00;101895.29;3514203;82;99512;-86
2022/01/23 06:01:12;;;;;;;21.87;7.73;;;;;;;-0.11;100.00;101902.31;3455517;84;99107;-86
2022/01/23 06:06:13;;;;;;;22.00;9.43;;;;;;;-0.07;100.00;101897.47;3507646;83;99114;-86
2022/01/23 06:11:14;;;;;;;22.23;8.77;;;;;;;-0.06;100.00;101898.27;3493689;83;99117;-86
2022/01/23 06:16:14;;;;;;;21.13;9.57;;;;;;;-0.12;100.00;101900.17;3496261;83;99108;-86
2022/01/23 06:21:19;;;;;;;19.17;9.30;;;;;;;-0.13;100.00;101895.02;3498180;83;99127;-87
2022/01/23 06:26:18;;;;;;;24.73;10.67;;;;;;;-0.15;100.00;101903.41;3501697;83;99015;-86
2022/01/23 06:31:19;;;;;;;24.43;11.37;;;;;;;-0.13;100.00;101914.52;3498803;83;99181;-86
2022/01/23 06:36:20;;;;;;;28.47;13.70;;;;;;;-0.11;100.00;101910.44;3518281;82;32335;-86
2022/01/23 06:41:20;;;;;;;23.80;9.53;;;;;;;-0.07;100.00;101916.41;3509862;82;99459;-86
2022/01/23 06:46:22;;;;;;;22.57;9.67;;;;;;;-0.04;100.00;101927.23;3503837;83;99435;-86
2022/01/23 06:51:23;;;;;;;23.67;9.53;;;;;;;-0.03;100.00;101918.03;3482754;82;99065;-86
2022/01/23 06:56:24;;;;;;;19.25;8.95;;;;;;;0.00;100.00;101926.42;3473679;83;99140;-86
2022/01/23 07:01:24;;;;;;;27.77;11.10;;;;;;;0.02;100.00;101940.48;3475162;83;98806;-86
2022/01/23 07:06:25;;;;;;;27.17;11.03;;;;;;;0.08;100.00;101938.60;3475314;83;28084;-85
2022/01/23 07:11:26;;;;;;;21.50;9.75;;;;;;;0.14;100.00;101941.57;3528296;82;99029;-86
2022/01/23 07:16:27;;;;;;;19.97;9.10;;;;;;;0.17;100.00;101939.13;3527171;82;98984;-86
2022/01/23 07:21:28;;;;;;;18.43;8.53;;;;;;;0.17;100.00;101944.55;3456403;83;98897;-86
2022/01/23 07:26:29;;;;;;;19.03;8.57;;;;;;;0.17;100.00;101951.31;3476935;83;99284;-86
2022/01/23 07:36:36;;;;;;;18.95;8.60;;;;;;;0.23;100.00;101953.49;3465067;83;31581;-86
2022/01/23 07:41:37;;;;;;;17.45;8.68;;;;;;;0.31;100.00;101978.66;3464304;83;99013;-86
2022/01/23 07:46:38;;;;;;;21.73;9.67;;;;;;;0.35;100.00;101988.70;3453424;83;98956;-86
2022/01/23 07:51:39;;;;;;;31.50;13.70;;;;;;;0.40;100.00;102007.62;3514554;82;98928;-86
2022/01/23 07:56:42;;;;;;;31.33;15.97;;;;;;;0.42;100.00;102015.48;3456303;84;99045;-85
2022/01/23 08:01:42;;;;;;;27.52;12.60;;;;;;;0.50;100.00;102018.45;3518150;81;99029;-86
2022/01/23 08:06:46;;;;;;;24.57;10.63;;;;;;;0.58;100.00;102023.88;3522195;82;25938;-85
2022/01/23 08:11:46;;;;;;;23.07;11.00;;;;;;;0.63;100.00;102024.70;3511563;82;98800;-86
2022/01/23 08:16:47;;;;;;;24.10;10.57;;;;;;;0.69;100.00;102030.37;3516742;82;98826;-86
2022/01/23 08:21:48;;;;;;;26.70;11.18;;;;;;;0.75;100.00;102042.84;3516422;82;98996;-85
2022/01/23 08:26:49;;;;;;;24.23;11.43;;;;;;;0.80;100.00;102045.54;3522942;82;98966;-85
2022/01/23 08:31:50;;;;;;;24.77;10.40;;;;;;;0.89;100.00;102056.64;3519782;82;98993;-85
2022/01/23 08:36:50;;;;;;;25.27;12.10;;;;;;;0.96;100.00;102054.45;3516707;82;25958;-85
2022/01/23 08:41:52;;;;;;;29.77;13.53;;;;;;;1.00;100.00;102052.27;3527706;82;99037;-85
2022/01/23 08:46:53;;;;;;;24.20;10.90;;;;;;;1.07;100.00;102050.63;3511362;82;98933;-85
2022/01/23 08:51:56;;;;;;;32.67;16.33;;;;;;;1.12;100.00;102044.67;3501218;83;99010;-85
2022/01/23 08:56:58;;;;;;;28.47;13.33;;;;;;;1.15;100.00;102040.59;3509188;82;99319;-85
2022/01/23 09:01:59;;;;;;;24.63;12.70;;;;;;;1.21;100.00;102043.56;3509650;82;98945;-85
2022/01/23 09:07:00;;;;;;;26.47;12.53;;;;;;;1.23;100.00;102035.95;3517457;82;25800;-85
2022/01/23 09:12:08;;;;;;;32.10;14.83;;;;;;;1.22;100.00;102031.05;3506923;83;99045;-84
2022/01/23 09:17:06;;;;;;;32.25;16.73;;;;;;;1.25;100.00;102035.12;3514423;83;98913;-85
2022/01/23 09:22:07;;;;;;;35.37;16.63;;;;;;;1.26;100.00;102034.05;3507416;82;99129;-85
2022/01/23 09:27:17;;;;;;;29.33;16.03;;;;;;;1.28;100.00;102040.83;3513815;83;98976;-84
2022/01/23 09:32:14;;;;;;;32.10;17.12;;;;;;;1.35;100.00;102041.88;3504729;82;99187;-85
2022/01/23 09:37:17;;;;;;;35.80;15.75;;;;;;;1.36;100.00;102044.31;3515906;82;32809;-84
2022/01/23 09:42:26;;;;;;;30.10;15.00;;;;;;;1.41;100.00;102038.88;3506868;82;98780;-84
2022/01/23 09:47:28;;;;;;;28.17;13.93;;;;;;;1.46;100.00;102039.39;3511937;82;99319;-85
2022/01/23 09:52:32;;;;;;;25.67;14.43;;;;;;;1.48;100.00;102043.45;3501995;82;99133;-85
2022/01/23 09:57:35;;;;;;;31.73;16.82;;;;;;;1.50;100.00;102043.18;3512564;82;99566;-84
2022/01/23 10:02:36;;;;;;;36.13;17.30;;;;;;;1.50;100.00;102033.15;3507767;82;98994;-85
2022/01/23 10:07:41;;;;;;;35.30;17.57;;;;;;;1.51;100.00;102038.02;3513035;82;99163;-85
2022/01/23 10:12:55;;;;;;;39.80;19.12;;;;;;;1.54;100.00;102038.83;3512983;82;98593;-84
2022/01/23 10:17:57;;;;;;;37.80;16.40;;;;;;;1.60;100.00;102044.50;3515104;82;98952;-85
2022/01/23 10:22:59;;;;;;;43.60;19.37;;;;;;;1.60;100.00;102049.36;3516737;82;98939;-84
2022/01/23 10:28:16;;;;;;;44.40;17.87;;;;;;;1.65;100.00;102048.55;3507728;82;99068;-85
2022/01/23 10:33:24;;;;;;;43.52;19.90;;;;;;;1.69;100.00;102060.48;3514836;82;99451;-85
2022/01/23 10:38:51;;;;;;;40.75;19.87;;;;;;;1.71;100.00;102061.00;3512025;82;99067;-84
2022/01/23 10:49:56;;;;;;;43.23;19.57;;;;;;;1.75;100.00;102050.66;3512571;82;99034;-86
2022/01/23 10:54:57;;;;;;;45.05;20.40;;;;;;;1.80;100.00;102046.56;3502442;82;32251;-86
2022/01/23 10:59:58;;;;;;;42.87;20.57;;;;;;;1.82;100.00;102063.94;3499126;82;98901;-86
2022/01/23 11:05:05;;;;;;;46.57;20.17;;;;;;;1.84;100.00;102067.16;3512926;83;98772;-85
2022/01/23 11:10:17;;;;;;;47.00;21.25;;;;;;;1.87;100.00;102074.20;3507365;82;99004;-86
2022/01/23 11:20:50;;;;;;;50.10;22.17;;;;;;;1.98;100.00;102056.77;3502473;82;99488;-86
2022/01/23 11:26:03;;;;;;;51.35;22.15;;;;;;;2.05;100.00;102057.29;3511900;83;98997;-86
2022/01/23 11:31:11;;;;;;;57.05;22.05;;;;;;;2.09;100.00;102066.48;3498451;82;98920;-86
2022/01/23 11:36:12;;;;;;;56.68;23.60;;;;;;;2.14;100.00;102070.52;3511794;82;98890;-86
2022/01/23 11:57:39;;;;;;;52.15;22.80;;;;;;;2.41;100.00;102079.03;3506355;83;99025;-87
2022/01/23 12:02:42;;;;;;;54.33;24.02;;;;;;;2.48;100.00;102074.64;3505267;83;99454;-88
2022/01/23 12:07:46;;;;;;;55.10;22.67;;;;;;;2.55;100.00;102069.16;3509213;83;99389;-88
2022/01/23 12:12:50;;;;;;;49.25;20.10;;;;;;;2.59;100.00;102072.11;3497260;83;98793;-88
2022/01/23 12:17:52;;;;;;;52.48;23.98;;;;;;;2.65;100.00;102087.28;3501983;83;98870;-87
2022/01/23 12:22:54;;;;;;;55.65;25.20;;;;;;;2.68;100.00;102093.52;3446909;84;98886;-88
2022/01/23 12:28:20;;;;;;;75.72;32.50;;;;;;;2.75;100.00;102097.55;3496942;83;99026;-87
2022/01/23 12:33:31;;;;;;;67.25;32.00;;;;;;;2.80;100.00;102102.91;3503552;83;98992;-88
2022/01/23 12:38:46;;;;;;;56.40;22.82;;;;;;;2.86;100.00;102095.00;3496057;83;99576;-87
2022/01/23 12:43:47;;;;;;;56.40;21.93;;;;;;;2.93;100.00;102097.37;3437310;84;99345;-88
2022/01/23 12:48:49;;;;;;;50.78;21.25;;;;;;;2.93;100.00;102094.11;3501496;83;98639;-88
2022/01/23 12:53:55;;;;;;;52.67;23.50;;;;;;;2.94;100.00;102099.81;3499617;83;99049;-88
2022/01/23 12:59:06;;;;;;;49.40;21.15;;;;;;;2.96;100.00;102096.81;3487293;83;98819;-88
2022/01/23 13:04:06;;;;;;;47.58;20.35;;;;;;;2.99;100.00;102098.95;3495674;83;99056;-88
2022/01/23 13:15:42;;;;;;;49.67;21.42;;;;;;;3.01;100.00;102096.20;3522981;82;99014;-88
2022/01/23 13:26:26;;;;;;;55.47;22.30;;;;;;;3.00;100.00;102100.59;3494909;82;99068;-89
2022/01/23 13:30:26;;;;;;;50.17;22.80;;;;;;;3.11;100.00;102114.36;3454786;83;98970;-88
2022/01/23 13:35:30;;;;;;;51.68;21.42;;;;;;;3.16;100.00;102123.27;3472228;83;98948;-88
2022/01/23 13:40:37;;;;;;;56.80;26.73;;;;;;;3.19;100.00;102121.88;3454892;83;99449;-88
2022/01/23 13:51:41;;;;;;;;;;;;;;;;;;;;;
2022/01/23 14:07:01;;;;;;;55.70;21.77;;;;;;;3.23;100.00;102114.78;3531321;82;32218;-87
2022/01/23 14:12:08;;;;;;;54.73;21.90;;;;;;;3.26;100.00;102123.17;3528917;81;98765;-87
2022/01/23 14:17:14;;;;;;;53.92;23.77;;;;;;;3.27;100.00;102122.64;3459477;83;98835;-88
2022/01/23 14:22:21;;;;;;;54.88;21.50;;;;;;;3.24;100.00;102116.39;3511601;82;99335;-87
2022/01/23 14:27:25;;;;;;;57.27;25.65;;;;;;;3.22;100.00;102122.12;3448800;84;27438;-87
2022/01/23 14:32:38;;;;;;;65.80;26.55;;;;;;;3.24;100.00;102126.75;3460413;84;99509;-87
2022/01/23 14:37:35;;;;;;;64.37;26.90;;;;;;;3.26;100.00;102131.34;3506142;82;32758;-87
2022/01/23 14:42:36;;;;;;;71.45;28.35;;;;;;;3.26;100.00;102128.62;3535607;81;99156;-87
2022/01/23 14:47:39;;;;;;;122.63;46.33;;;;;;;3.27;100.00;102136.24;3524783;82;99523;-87
2022/01/23 14:52:40;;;;;;;184.65;57.43;;;;;;;3.24;100.00;102144.43;3517705;81;99194;-87
2022/01/23 14:57:43;;;;;;;158.00;51.73;;;;;;;3.20;100.00;102140.65;3486449;82;99310;-88
2022/01/23 15:02:45;;;;;;;121.75;44.88;;;;;;;3.18;100.00;102148.27;3512541;82;99287;-88
2022/01/23 15:07:46;;;;;;;83.55;35.73;;;;;;;3.16;100.00;102145.60;3520840;81;99533;-87
2022/01/23 15:12:48;;;;;;;91.67;36.63;;;;;;;3.14;100.00;102143.16;3517068;81;98785;-87
2022/01/23 15:17:51;;;;;;;87.57;35.60;;;;;;;3.12;100.00;102137.17;3483455;83;99229;-87
2022/01/23 15:22:58;;;;;;;83.95;31.40;;;;;;;3.12;100.00;102138.53;3476132;83;98983;-87
2022/01/23 15:28:01;;;;;;;98.93;40.23;;;;;;;3.06;100.00;102142.40;3514719;82;99103;-87
2022/01/23 15:33:02;;;;;;;80.97;33.88;;;;;;;2.95;100.00;102146.87;3520683;81;99086;-87
2022/01/23 15:38:03;;;;;;;76.67;35.00;;;;;;;2.91;100.00;102139.83;3477192;84;99060;-88
2022/01/23 15:43:04;;;;;;;86.65;36.03;;;;;;;2.89;100.00;102144.72;3465969;83;98875;-87
2022/01/23 15:48:05;;;;;;;83.07;34.43;;;;;;;2.77;100.00;102144.28;3470218;83;98877;-87
2022/01/23 15:53:07;;;;;;;87.17;35.50;;;;;;;2.74;100.00;102149.47;3409737;83;99264;-87
2022/01/23 15:58:08;;;;;;;87.17;34.00;;;;;;;2.70;100.00;102150.59;3527948;82;99011;-87
2022/01/23 16:03:09;;;;;;;90.23;35.47;;;;;;;2.71;100.00;102151.39;3502213;82;99049;-88
2022/01/23 16:08:10;;;;;;;90.73;38.27;;;;;;;2.70;100.00;102151.95;3499013;83;99083;-87
2022/01/23 16:13:13;;;;;;;97.80;45.03;;;;;;;2.67;100.00;102159.30;3499342;83;98692;-87
2022/01/23 16:18:15;;;;;;;98.60;45.50;;;;;;;2.63;100.00;102165.59;3505404;83;99280;-87
2022/01/23 16:23:15;;;;;;;80.17;38.25;;;;;;;2.56;100.00;102170.55;3487282;83;99407;-87
2022/01/23 16:28:16;;;;;;;81.33;37.00;;;;;;;2.58;100.00;102175.14;3508537;83;98966;-87
2022/01/23 16:33:19;;;;;;;69.63;31.90;;;;;;;2.62;100.00;102178.92;3500733;83;99122;-87
2022/01/23 16:38:20;;;;;;;74.35;32.58;;;;;;;2.60;100.00;102185.17;3500869;83;99005;-87
2022/01/23 16:43:27;;;;;;;71.00;28.20;;;;;;;2.55;100.00;102190.63;3492404;82;26203;-87
2022/01/23 16:48:28;;;;;;;71.43;34.00;;;;;;;2.56;100.00;102194.44;3446132;82;98951;-87
2022/01/23 16:53:28;;;;;;;55.53;26.17;;;;;;;2.54;100.00;102187.13;3510093;83;98783;-87
2022/01/23 16:58:32;;;;;;;65.00;27.07;;;;;;;2.51;100.00;102186.31;3500616;83;99410;-87
2022/01/23 17:03:33;;;;;;;97.20;37.55;;;;;;;2.58;100.00;102183.29;3500846;83;30455;-87
2022/01/23 17:08:36;;;;;;;71.13;31.43;;;;;;;2.57;100.00;102180.31;3450841;83;99122;-87
2022/01/23 17:13:38;;;;;;;116.47;39.35;;;;;;;2.51;100.00;102186.31;3542794;83;32445;-87
2022/01/23 17:18:42;;;;;;;108.45;44.93;;;;;;;2.52;100.00;102183.85;3499072;83;99128;-88
2022/01/23 17:23:45;;;;;;;103.72;41.25;;;;;;;2.56;100.00;102182.77;3473952;83;99168;-87
2022/01/23 17:28:47;;;;;;;92.53;36.70;;;;;;;2.52;100.00;102187.14;3500781;83;99679;-87
2022/01/23 17:33:49;;;;;;;81.30;33.75;;;;;;;2.58;100.00;102180.57;3478787;83;99521;-87
2022/01/23 17:39:00;;;;;;;84.65;34.45;;;;;;;2.59;100.00;102176.75;3537841;82;98988;-87
2022/01/23 17:44:00;;;;;;;153.18;57.80;;;;;;;2.56;100.00;102165.90;3546338;81;32287;-88
2022/01/23 17:49:07;;;;;;;123.90;52.97;;;;;;;2.57;100.00;102174.88;3562790;81;99187;-88
2022/01/23 17:54:07;;;;;;;113.28;44.35;;;;;;;2.58;100.00;102176.50;3485381;83;98992;-88
2022/01/23 17:59:08;;;;;;;100.30;43.60;;;;;;;2.57;100.00;102182.47;3442102;83;99270;-88
2022/01/23 18:04:09;;;;;;;106.67;45.67;;;;;;;2.59;100.00;102179.47;3476534;83;99287;-87
2022/01/23 18:09:13;;;;;;;100.93;43.77;;;;;;;2.58;100.00;102188.73;3456212;83;99267;-88
2022/01/23 18:14:15;;;;;;;98.42;42.23;;;;;;;2.58;100.00;102188.16;3457004;83;99665;-88
2022/01/23 18:19:16;;;;;;;102.27;41.65;;;;;;;2.56;100.00;102195.80;3444174;84;99327;-88
2022/01/23 18:24:18;;;;;;;88.55;39.85;;;;;;;2.49;100.00;102194.48;3451188;83;99510;-88
2022/01/23 18:29:19;;;;;;;99.52;42.15;;;;;;;2.54;100.00;102208.86;3481601;83;99190;-88
2022/01/23 18:34:20;;;;;;;88.62;39.90;;;;;;;2.55;100.00;102218.64;3476428;83;99077;-88
2022/01/23 18:39:21;;;;;;;93.83;40.30;;;;;;;2.55;100.00;102209.66;3462013;83;99163;-88
2022/01/23 18:44:22;;;;;;;77.10;33.03;;;;;;;2.58;100.00;102222.14;3476914;83;98991;-88
2022/01/23 18:49:23;;;;;;;76.70;33.80;;;;;;;2.57;100.00;102221.08;3475667;83;98744;-88
2022/01/23 18:54:38;;;;;;;79.03;35.27;;;;;;;2.59;100.00;102231.12;3475562;83;99347;-88
2022/01/23 18:59:33;;;;;;;93.67;43.77;;;;;;;2.58;100.00;102234.93;3472504;83;99361;-88
2022/01/23 19:04:39;;;;;;;75.72;34.03;;;;;;;2.52;100.00;102230.62;3549017;82;99429;-88
2022/01/23 19:09:40;;;;;;;83.92;36.40;;;;;;;2.54;100.00;102245.55;3517551;81;99093;-88
2022/01/23 19:14:39;;;;;;;82.40;36.65;;;;;;;2.56;100.00;102243.36;3454087;82;99098;-88
2022/01/23 19:19:39;;;;;;;70.67;33.40;;;;;;;2.59;100.00;102246.06;3474518;83;99067;-88
2022/01/23 19:24:43;;;;;;;84.33;37.00;;;;;;;2.58;100.00;102243.87;3510912;83;99254;-88
2022/01/23 19:29:48;;;;;;;95.20;39.03;;;;;;;2.61;100.00;102239.80;3451070;83;99058;-88
2022/01/23 19:34:49;;;;;;;77.03;34.38;;;;;;;2.58;100.00;102258.03;3459233;83;99121;-87
2022/01/23 19:39:50;;;;;;;98.00;43.73;;;;;;;2.51;100.00;102257.53;3451876;82;99491;-88
2022/01/23 19:44:58;;;;;;;84.95;38.45;;;;;;;2.57;100.00;102257.77;3462535;83;99396;-88
2022/01/23 19:49:54;;;;;;;84.60;37.05;;;;;;;2.58;100.00;102266.19;3427791;83;99054;-88
2022/01/23 19:54:55;;;;;;;90.20;39.53;;;;;;;2.56;100.00;102278.69;3467973;83;98842;-88
2022/01/23 19:59:57;;;;;;;93.13;40.20;;;;;;;2.56;100.00;102281.97;3566302;82;98959;-89
2022/01/23 20:04:58;;;;;;;88.03;41.28;;;;;;;2.55;100.00;102281.16;3563608;80;99140;-88
2022/01/23 20:10:28;;;;;;;117.17;52.03;;;;;;;2.56;100.00;102286.05;3542634;82;99172;-88
2022/01/23 20:15:14;;;;;;;126.90;49.90;;;;;;;2.59;100.00;102290.91;3547276;82;99194;-88
2022/01/23 20:20:15;;;;;;;119.33;53.70;;;;;;;2.59;100.00;102289.02;3558115;82;99708;-88
2022/01/23 20:25:16;;;;;;;106.33;49.27;;;;;;;2.57;100.00;102275.44;3549863;82;26579;-88
2022/01/23 20:30:20;;;;;;;135.93;54.20;;;;;;;2.57;100.00;102284.39;3573632;82;99483;-88
2022/01/23 20:35:22;;;;;;;134.32;55.58;;;;;;;2.56;100.00;102281.97;3577594;82;99225;-88
2022/01/23 20:40:34;;;;;;;142.20;61.50;;;;;;;2.56;100.00;102281.97;3545428;82;99202;-88
2022/01/23 20:45:29;;;;;;;150.38;61.63;;;;;;;2.55;100.00;102292.02;3521289;82;99323;-88
2022/01/23 20:50:35;;;;;;;126.62;55.95;;;;;;;2.57;100.00;102294.47;3468615;84;99143;-89
2022/01/23 20:55:37;;;;;;;124.70;55.52;;;;;;;2.55;100.00;102283.05;3537128;82;33009;-89
2022/01/23 21:00:40;;;;;;;145.75;63.60;;;;;;;2.49;100.00;102284.16;3431340;84;99186;-88
2022/01/23 21:05:41;;;;;;;128.97;57.70;;;;;;;2.42;100.00;102289.91;3539741;82;99144;-88
2022/01/23 21:10:43;;;;;;;132.57;59.10;;;;;;;2.44;100.00;102297.23;3518189;82;99733;-89
2022/01/23 21:41:53;;;;;;;160.88;64.22;;;;;;;2.47;100.00;102317.60;3490098;83;99109;-88
2022/01/23 21:46:54;;;;;;;148.73;60.97;;;;;;;2.47;100.00;102324.40;3506713;83;25925;-89
2022/01/23 21:51:55;;;;;;;154.57;66.53;;;;;;;2.47;100.00;102327.91;3500867;82;99636;-88
2022/01/23 21:56:56;;;;;;;132.33;57.50;;;;;;;2.47;100.00;102336.62;3492103;83;99234;-89
2022/01/23 22:01:57;;;;;;;116.83;53.30;;;;;;;2.48;100.00;102331.45;3522212;82;98783;-88
2022/01/23 22:07:00;;;;;;;122.10;57.33;;;;;;;2.47;100.00;102329.83;3525003;82;99050;-88
2022/01/23 22:17:13;;;;;;;149.15;62.33;;;;;;;2.40;100.00;102331.47;3460380;84;99197;-89
2022/01/23 22:22:56;;;;;;;127.47;59.17;;;;;;;2.42;100.00;102323.05;3450978;83;100648;-88
2022/01/23 22:27:34;;;;;;;137.18;60.80;;;;;;;2.40;100.00;102322.53;3452504;83;99809;-88
2022/01/23 22:32:35;;;;;;;143.87;63.63;;;;;;;2.40;100.00;102326.61;3464041;83;99357;-89
2022/01/23 22:37:42;;;;;;;143.93;61.23;;;;;;;2.36;100.00;102329.03;3527924;82;99450;-88
2022/01/23 22:42:43;;;;;;;119.85;49.98;;;;;;;2.39;100.00;102322.23;3429371;83;99094;-88
2022/01/23 22:47:42;;;;;;;115.42;50.80;;;;;;;2.41;100.00;102314.64;3477945;83;99294;-88
2022/01/23 22:52:43;;;;;;;101.93;45.70;;;;;;;2.38;100.00;102315.18;3460917;83;99211;-88
2022/01/23 22:57:44;;;;;;;132.20;55.90;;;;;;;2.36;100.00;102310.58;3472708;83;99291;-89
2022/01/23 23:02:45;;;;;;;111.43;52.50;;;;;;;2.33;100.00;102307.04;3470477;83;99059;-89
2022/01/23 23:07:45;;;;;;;122.17;53.53;;;;;;;2.34;100.00;102304.59;3467230;83;98959;-89
2022/01/23 23:12:46;;;;;;;133.33;54.97;;;;;;;2.29;100.00;102314.94;3470778;83;99121;-88
2022/01/23 23:17:48;;;;;;;117.53;49.07;;;;;;;2.31;100.00;102310.06;3480397;83;99660;-89
2022/01/23 23:22:48;;;;;;;106.30;49.03;;;;;;;2.35;100.00;102305.67;3456189;83;99702;-88
2022/01/23 23:27:49;;;;;;;117.70;51.60;;;;;;;2.30;100.00;102314.41;3451176;83;99275;-89
2022/01/23 23:32:53;;;;;;;116.67;51.73;;;;;;;2.34;100.00;102320.89;3471525;83;99224;-88
2022/01/23 23:37:54;;;;;;;112.50;49.90;;;;;;;2.39;100.00;102319.52;3449380;83;25909;-88
2022/01/23 23:43:06;;;;;;;114.47;50.00;;;;;;;2.35;100.00;102327.41;3508732;82;98989;-88
2022/01/23 23:48:05;;;;;;;100.42;44.58;;;;;;;2.30;100.00;102326.62;3496692;82;99283;-88
2022/01/23 23:53:07;;;;;;;100.67;44.77;;;;;;;2.33;100.00;102330.96;3471828;83;99208;-88
2022/01/23 23:58:08;;;;;;;98.60;47.50;;;;;;;2.29;100.00;102331.23;3492397;83;99790;-87
